sensor_id;sensor_type;location;lat;lon;timestamp;pressure;altitude;pressure_sealevel;temperature;humidity
13434;BME280;6789;47.678;9.158;2023-05-13T00:02:55;96545.31;;;12.08;100.00
13434;BME280;6789;47.678;9.158;2023-05-13T00:07:47;96546.16;;;11.97;100.00
13434;BME280;6789;47.678;9.158;2023-05-13T00:12:38;96548.19;;;12.07;100.00
13434;BME280;6789;47.678;9.158;2023-05-13T00:17:30;96540.94;;;12.13;100.00
13434;BME280;6789;47.678;9.158;2023-05-13T00:22:22;96559.69;;;12.33;100.00
13434;BME280;6789;47.678;9.158;2023-05-13T00:27:14;96555.13;;;12.29;100.00
13434;BME280;6789;47.678;9.158;2023-05-13T00:32:05;96556.81;;;12.35;100.00
13434;BME280;6789;47.678;9.158;2023-05-13T00:36:57;96550.31;;;12.26;100.00
13434;BME280;6789;47.678;9.158;2023-05-13T00:41:49;96552.81;;;12.32;100.00
13434;BME280;6789;47.678;9.158;2023-05-13T00:46:41;96553.13;;;12.36;100.00
13434;BME280;6789;47.678;9.158;2023-05-13T00:51:33;96553.94;;;12.36;100.00
13434;BME280;6789;47.678;9.158;2023-05-13T00:56:25;96557.03;;;12.33;100.00
13434;BME280;6789;47.678;9.158;2023-05-13T01:01:37;96547.78;;;12.31;100.00
13434;BME280;6789;47.678;9.158;2023-05-13T01:07:11;96554.94;;;12.35;100.00
13434;BME280;6789;47.678;9.158;2023-05-13T01:12:17;96559.81;;;12.27;100.00
13434;BME280;6789;47.678;9.158;2023-05-13T01:22:31;96544.53;;;12.24;100.00
13434;BME280;6789;47.678;9.158;2023-05-13T01:27:24;96548.34;;;12.16;100.00
13434;BME280;6789;47.678;9.158;2023-05-13T01:32:17;96543.56;;;12.13;100.00
13434;BME280;6789;47.678;9.158;2023-05-13T01:37:09;96549.94;;;12.17;100.00
13434;BME280;6789;47.678;9.158;2023-05-13T01:42:01;96549.38;;;12.15;100.00
13434;BME280;6789;47.678;9.158;2023-05-13T01:46:54;96545.25;;;12.19;100.00
13434;BME280;6789;47.678;9.158;2023-05-13T01:51:46;96547.63;;;12.21;100.00
13434;BME280;6789;47.678;9.158;2023-05-13T01:56:37;96555.84;;;12.24;100.00
13434;BME280;6789;47.678;9.158;2023-05-13T02:01:29;96556.31;;;12.21;100.00
13434;BME280;6789;47.678;9.158;2023-05-13T02:06:21;96555.19;;;12.17;100.00
13434;BME280;6789;47.678;9.158;2023-05-13T02:11:13;96551.59;;;12.07;100.00
13434;BME280;6789;47.678;9.158;2023-05-13T02:16:05;96561.66;;;12.10;100.00
13434;BME280;6789;47.678;9.158;2023-05-13T02:20:56;96562.22;;;12.12;100.00
13434;BME280;6789;47.678;9.158;2023-05-13T02:25:48;96556.13;;;12.11;100.00
13434;BME280;6789;47.678;9.158;2023-05-13T02:30:40;96553.84;;;12.15;100.00
13434;BME280;6789;47.678;9.158;2023-05-13T02:35:32;96557.25;;;12.15;100.00
13434;BME280;6789;47.678;9.158;2023-05-13T02:40:24;96560.13;;;12.14;100.00
13434;BME280;6789;47.678;9.158;2023-05-13T02:45:15;96552.63;;;12.06;100.00
13434;BME280;6789;47.678;9.158;2023-05-13T02:50:07;96554.22;;;12.07;100.00
13434;BME280;6789;47.678;9.158;2023-05-13T02:55:01;96553.91;;;12.04;100.00
13434;BME280;6789;47.678;9.158;2023-05-13T02:59:53;96561.94;;;11.97;100.00
13434;BME280;6789;47.678;9.158;2023-05-13T03:04:45;96553.09;;;12.03;100.00
13434;BME280;6789;47.678;9.158;2023-05-13T03:09:37;96559.31;;;11.97;100.00
13434;BME280;6789;47.678;9.158;2023-05-13T03:14:30;96570.00;;;12.07;100.00
13434;BME280;6789;47.678;9.158;2023-05-13T03:19:22;96573.66;;;12.06;100.00
13434;BME280;6789;47.678;9.158;2023-05-13T03:24:14;96572.38;;;11.92;100.00
13434;BME280;6789;47.678;9.158;2023-05-13T03:29:06;96565.34;;;11.98;100.00
13434;BME280;6789;47.678;9.158;2023-05-13T03:33:57;96570.69;;;11.86;100.00
13434;BME280;6789;47.678;9.158;2023-05-13T03:38:49;96580.34;;;11.97;100.00
13434;BME280;6789;47.678;9.158;2023-05-13T03:43:41;96578.81;;;12.01;100.00
13434;BME280;6789;47.678;9.158;2023-05-13T03:48:32;96578.66;;;11.91;100.00
13434;BME280;6789;47.678;9.158;2023-05-13T03:53:24;96592.06;;;11.78;100.00
13434;BME280;6789;47.678;9.158;2023-05-13T03:58:16;96594.63;;;11.73;100.00
13434;BME280;6789;47.678;9.158;2023-05-13T04:03:08;96591.84;;;11.80;100.00
13434;BME280;6789;47.678;9.158;2023-05-13T04:08:01;96590.56;;;11.82;100.00
13434;BME280;6789;47.678;9.158;2023-05-13T04:12:52;96599.47;;;11.81;100.00
13434;BME280;6789;47.678;9.158;2023-05-13T04:17:44;96602.44;;;11.85;100.00
13434;BME280;6789;47.678;9.158;2023-05-13T04:22:36;96611.50;;;11.77;100.00
13434;BME280;6789;47.678;9.158;2023-05-13T04:27:28;96610.91;;;11.75;100.00
13434;BME280;6789;47.678;9.158;2023-05-13T04:32:19;96611.16;;;11.74;100.00
13434;BME280;6789;47.678;9.158;2023-05-13T04:37:14;96616.72;;;11.89;100.00
13434;BME280;6789;47.678;9.158;2023-05-13T04:42:06;96625.75;;;11.81;100.00
13434;BME280;6789;47.678;9.158;2023-05-13T04:46:58;96629.78;;;12.00;100.00
13434;BME280;6789;47.678;9.158;2023-05-13T04:51:50;96632.03;;;12.08;100.00
13434;BME280;6789;47.678;9.158;2023-05-13T04:56:42;96636.34;;;12.14;100.00
13434;BME280;6789;47.678;9.158;2023-05-13T05:01:34;96637.38;;;12.13;100.00
13434;BME280;6789;47.678;9.158;2023-05-13T05:06:25;96636.94;;;12.16;100.00
13434;BME280;6789;47.678;9.158;2023-05-13T05:11:17;96650.97;;;12.38;100.00
13434;BME280;6789;47.678;9.158;2023-05-13T05:16:09;96662.03;;;12.23;100.00
13434;BME280;6789;47.678;9.158;2023-05-13T05:21:01;96663.38;;;12.26;100.00
13434;BME280;6789;47.678;9.158;2023-05-13T05:25:53;96666.69;;;12.33;100.00
13434;BME280;6789;47.678;9.158;2023-05-13T05:31:01;96679.69;;;12.56;99.81
13434;BME280;6789;47.678;9.158;2023-05-13T05:35:53;96671.81;;;12.56;99.60
13434;BME280;6789;47.678;9.158;2023-05-13T05:40:45;96679.16;;;12.54;99.36
13434;BME280;6789;47.678;9.158;2023-05-13T05:45:38;96680.25;;;12.58;96.29
13434;BME280;6789;47.678;9.158;2023-05-13T05:50:31;96684.16;;;12.55;97.45
13434;BME280;6789;47.678;9.158;2023-05-13T05:55:23;96687.03;;;12.54;97.53
13434;BME280;6789;47.678;9.158;2023-05-13T06:00:15;96691.44;;;12.65;96.05
13434;BME280;6789;47.678;9.158;2023-05-13T06:05:07;96697.91;;;12.74;94.46
13434;BME280;6789;47.678;9.158;2023-05-13T06:10:00;96706.03;;;12.28;94.94
13434;BME280;6789;47.678;9.158;2023-05-13T06:14:51;96708.94;;;12.43;94.54
13434;BME280;6789;47.678;9.158;2023-05-13T06:19:43;96706.94;;;12.50;95.29
13434;BME280;6789;47.678;9.158;2023-05-13T06:24:36;96702.22;;;12.80;93.12
13434;BME280;6789;47.678;9.158;2023-05-13T06:29:28;96696.19;;;12.95;92.84
13434;BME280;6789;47.678;9.158;2023-05-13T06:34:20;96698.75;;;13.07;91.78
13434;BME280;6789;47.678;9.158;2023-05-13T06:39:12;96705.44;;;13.14;90.29
13434;BME280;6789;47.678;9.158;2023-05-13T06:44:05;96701.84;;;13.37;88.86
13434;BME280;6789;47.678;9.158;2023-05-13T06:48:58;96703.78;;;13.08;91.37
13434;BME280;6789;47.678;9.158;2023-05-13T06:53:49;96705.25;;;13.37;88.78
13434;BME280;6789;47.678;9.158;2023-05-13T06:58:41;96704.66;;;13.14;89.28
13434;BME280;6789;47.678;9.158;2023-05-13T07:03:33;96703.31;;;13.11;88.85
13434;BME280;6789;47.678;9.158;2023-05-13T07:08:25;96709.59;;;13.27;87.92
13434;BME280;6789;47.678;9.158;2023-05-13T07:13:19;96710.84;;;13.24;86.99
13434;BME280;6789;47.678;9.158;2023-05-13T07:18:11;96713.78;;;13.44;86.85
13434;BME280;6789;47.678;9.158;2023-05-13T07:23:03;96714.97;;;13.53;85.77
13434;BME280;6789;47.678;9.158;2023-05-13T07:27:55;96715.44;;;13.50;86.12
13434;BME280;6789;47.678;9.158;2023-05-13T07:32:46;96709.72;;;13.53;86.63
13434;BME280;6789;47.678;9.158;2023-05-13T07:37:38;96712.66;;;13.56;86.09
13434;BME280;6789;47.678;9.158;2023-05-13T07:42:30;96708.41;;;13.72;85.01
13434;BME280;6789;47.678;9.158;2023-05-13T07:47:22;96710.53;;;13.75;85.39
13434;BME280;6789;47.678;9.158;2023-05-13T07:52:15;96706.53;;;13.72;84.24
13434;BME280;6789;47.678;9.158;2023-05-13T07:57:07;96708.03;;;13.85;84.18
13434;BME280;6789;47.678;9.158;2023-05-13T08:01:58;96718.59;;;14.06;82.86
13434;BME280;6789;47.678;9.158;2023-05-13T08:06:50;96715.13;;;14.06;84.02
13434;BME280;6789;47.678;9.158;2023-05-13T08:11:42;96721.63;;;14.15;83.20
13434;BME280;6789;47.678;9.158;2023-05-13T08:16:34;96716.72;;;14.07;83.45
13434;BME280;6789;47.678;9.158;2023-05-13T08:21:29;96722.59;;;14.30;83.59
13434;BME280;6789;47.678;9.158;2023-05-13T08:26:22;96721.34;;;14.37;83.30
13434;BME280;6789;47.678;9.158;2023-05-13T08:31:14;96720.03;;;14.14;82.89
13434;BME280;6789;47.678;9.158;2023-05-13T08:36:06;96718.44;;;14.39;82.88
13434;BME280;6789;47.678;9.158;2023-05-13T08:40:59;96717.97;;;13.99;83.55
13434;BME280;6789;47.678;9.158;2023-05-13T08:45:52;96725.03;;;14.15;82.61
13434;BME280;6789;47.678;9.158;2023-05-13T08:50:46;96726.66;;;14.00;83.86
13434;BME280;6789;47.678;9.158;2023-05-13T08:55:38;96729.13;;;13.85;84.69
13434;BME280;6789;47.678;9.158;2023-05-13T09:00:33;96744.72;;;13.70;85.80
13434;BME280;6789;47.678;9.158;2023-05-13T09:05:25;96735.38;;;13.79;86.72
13434;BME280;6789;47.678;9.158;2023-05-13T09:10:19;96756.22;;;13.80;86.22
13434;BME280;6789;47.678;9.158;2023-05-13T09:15:15;96759.38;;;13.45;86.50
13434;BME280;6789;47.678;9.158;2023-05-13T09:20:10;96761.47;;;13.26;87.47
13434;BME280;6789;47.678;9.158;2023-05-13T09:25:03;96757.53;;;13.45;87.41
13434;BME280;6789;47.678;9.158;2023-05-13T09:30:00;96752.72;;;13.58;86.60
13434;BME280;6789;47.678;9.158;2023-05-13T09:34:52;96763.59;;;13.62;87.44
13434;BME280;6789;47.678;9.158;2023-05-13T09:39:44;96755.50;;;13.85;86.77
13434;BME280;6789;47.678;9.158;2023-05-13T09:44:37;96759.16;;;13.84;84.95
13434;BME280;6789;47.678;9.158;2023-05-13T09:49:30;96754.13;;;13.82;85.85
13434;BME280;6789;47.678;9.158;2023-05-13T09:54:22;96754.94;;;14.04;84.72
13434;BME280;6789;47.678;9.158;2023-05-13T09:59:14;96764.25;;;13.90;85.09
13434;BME280;6789;47.678;9.158;2023-05-13T10:04:06;96753.34;;;14.46;82.66
13434;BME280;6789;47.678;9.158;2023-05-13T10:09:00;96761.31;;;14.72;80.80
13434;BME280;6789;47.678;9.158;2023-05-13T10:14:00;96767.34;;;14.68;81.58
13434;BME280;6789;47.678;9.158;2023-05-13T10:18:55;96763.84;;;14.89;79.76
13434;BME280;6789;47.678;9.158;2023-05-13T10:23:49;96764.31;;;14.81;80.79
13434;BME280;6789;47.678;9.158;2023-05-13T10:28:44;96767.59;;;14.66;80.82
13434;BME280;6789;47.678;9.158;2023-05-13T10:33:36;96768.06;;;14.90;79.98
13434;BME280;6789;47.678;9.158;2023-05-13T10:39:04;96758.03;;;14.87;79.87
13434;BME280;6789;47.678;9.158;2023-05-13T10:43:58;96770.22;;;14.66;79.52
13434;BME280;6789;47.678;9.158;2023-05-13T10:48:56;96775.22;;;14.89;78.47
13434;BME280;6789;47.678;9.158;2023-05-13T10:53:54;96763.13;;;14.72;79.62
13434;BME280;6789;47.678;9.158;2023-05-13T10:59:05;96770.22;;;14.93;79.21
13434;BME280;6789;47.678;9.158;2023-05-13T11:03:59;96762.69;;;15.06;79.97
13434;BME280;6789;47.678;9.158;2023-05-13T11:08:52;96766.25;;;14.90;80.23
13434;BME280;6789;47.678;9.158;2023-05-13T11:14:22;96764.63;;;15.15;78.64
13434;BME280;6789;47.678;9.158;2023-05-13T11:19:36;96764.13;;;14.92;79.22
13434;BME280;6789;47.678;9.158;2023-05-13T11:24:28;96772.34;;;14.69;78.60
13434;BME280;6789;47.678;9.158;2023-05-13T11:29:34;96779.19;;;14.92;79.84
13434;BME280;6789;47.678;9.158;2023-05-13T11:34:27;96769.47;;;14.71;79.18
13434;BME280;6789;47.678;9.158;2023-05-13T11:39:21;96779.63;;;14.36;81.10
13434;BME280;6789;47.678;9.158;2023-05-13T11:44:17;96771.22;;;14.39;81.80
13434;BME280;6789;47.678;9.158;2023-05-13T11:49:09;96759.50;;;14.51;82.05
13434;BME280;6789;47.678;9.158;2023-05-13T11:54:02;96765.78;;;14.72;81.09
13434;BME280;6789;47.678;9.158;2023-05-13T11:58:55;96770.38;;;14.33;83.24
13434;BME280;6789;47.678;9.158;2023-05-13T12:03:47;96771.50;;;14.00;84.12
13434;BME280;6789;47.678;9.158;2023-05-13T12:08:43;96776.63;;;14.27;84.23
13434;BME280;6789;47.678;9.158;2023-05-13T12:13:35;96779.03;;;14.29;83.46
13434;BME280;6789;47.678;9.158;2023-05-13T12:18:27;96776.53;;;14.01;85.81
13434;BME280;6789;47.678;9.158;2023-05-13T12:23:19;96773.06;;;14.38;84.82
13434;BME280;6789;47.678;9.158;2023-05-13T12:28:24;96785.75;;;14.20;86.55
13434;BME280;6789;47.678;9.158;2023-05-13T12:33:19;96783.69;;;14.06;87.17
13434;BME280;6789;47.678;9.158;2023-05-13T12:38:15;96778.41;;;14.22;86.63
13434;BME280;6789;47.678;9.158;2023-05-13T12:43:10;96773.16;;;14.48;84.52
13434;BME280;6789;47.678;9.158;2023-05-13T12:48:03;96794.75;;;14.03;87.62
13434;BME280;6789;47.678;9.158;2023-05-13T12:52:55;96790.31;;;14.08;87.97
13434;BME280;6789;47.678;9.158;2023-05-13T12:57:55;96792.16;;;14.08;88.09
13434;BME280;6789;47.678;9.158;2023-05-13T13:02:47;96794.13;;;13.96;88.46
13434;BME280;6789;47.678;9.158;2023-05-13T13:07:39;96797.31;;;13.98;88.73
13434;BME280;6789;47.678;9.158;2023-05-13T13:12:32;96786.59;;;14.04;87.99
13434;BME280;6789;47.678;9.158;2023-05-13T13:17:24;96789.41;;;13.98;88.38
13434;BME280;6789;47.678;9.158;2023-05-13T13:22:16;96775.16;;;14.15;87.28
13434;BME280;6789;47.678;9.158;2023-05-13T13:27:10;96777.06;;;14.41;87.55
13434;BME280;6789;47.678;9.158;2023-05-13T13:32:02;96772.94;;;14.50;86.56
13434;BME280;6789;47.678;9.158;2023-05-13T13:36:54;96774.53;;;14.29;87.12
13434;BME280;6789;47.678;9.158;2023-05-13T13:41:45;96778.97;;;14.45;87.34
13434;BME280;6789;47.678;9.158;2023-05-13T13:46:37;96766.41;;;14.31;87.18
13434;BME280;6789;47.678;9.158;2023-05-13T13:51:29;96770.59;;;14.11;87.38
13434;BME280;6789;47.678;9.158;2023-05-13T13:56:21;96765.47;;;14.21;87.34
13434;BME280;6789;47.678;9.158;2023-05-13T14:01:13;96775.50;;;14.66;85.67
13434;BME280;6789;47.678;9.158;2023-05-13T14:06:06;96776.41;;;15.03;83.34
13434;BME280;6789;47.678;9.158;2023-05-13T14:10:58;96762.97;;;15.36;82.85
13434;BME280;6789;47.678;9.158;2023-05-13T14:15:50;96752.97;;;15.11;82.22
13434;BME280;6789;47.678;9.158;2023-05-13T14:20:42;96761.00;;;14.95;82.63
13434;BME280;6789;47.678;9.158;2023-05-13T14:25:34;96764.44;;;14.69;83.91
13434;BME280;6789;47.678;9.158;2023-05-13T14:30:26;96764.84;;;14.14;86.19
13434;BME280;6789;47.678;9.158;2023-05-13T14:35:18;96764.84;;;14.14;87.11
13434;BME280;6789;47.678;9.158;2023-05-13T14:40:10;96761.53;;;14.23;87.60
13434;BME280;6789;47.678;9.158;2023-05-13T14:45:01;96763.44;;;14.27;87.94
13434;BME280;6789;47.678;9.158;2023-05-13T14:49:53;96755.91;;;13.98;89.41
13434;BME280;6789;47.678;9.158;2023-05-13T14:54:45;96750.75;;;14.08;89.99
13434;BME280;6789;47.678;9.158;2023-05-13T14:59:37;96752.94;;;14.32;87.82
13434;BME280;6789;47.678;9.158;2023-05-13T15:04:28;96744.41;;;14.04;88.91
13434;BME280;6789;47.678;9.158;2023-05-13T15:09:21;96739.66;;;14.23;89.29
13434;BME280;6789;47.678;9.158;2023-05-13T15:14:12;96738.44;;;14.56;86.90
13434;BME280;6789;47.678;9.158;2023-05-13T15:19:08;96740.78;;;14.53;87.01
13434;BME280;6789;47.678;9.158;2023-05-13T15:24:00;96741.81;;;14.52;86.82
13434;BME280;6789;47.678;9.158;2023-05-13T15:28:51;96740.00;;;14.52;87.30
13434;BME280;6789;47.678;9.158;2023-05-13T15:33:43;96730.13;;;14.43;88.25
13434;BME280;6789;47.678;9.158;2023-05-13T15:38:36;96728.78;;;14.40;87.88
13434;BME280;6789;47.678;9.158;2023-05-13T15:43:27;96733.81;;;14.21;88.81
13434;BME280;6789;47.678;9.158;2023-05-13T15:48:21;96723.59;;;14.50;89.48
13434;BME280;6789;47.678;9.158;2023-05-13T15:53:13;96732.53;;;14.49;87.84
13434;BME280;6789;47.678;9.158;2023-05-13T15:58:05;96738.16;;;14.10;89.51
13434;BME280;6789;47.678;9.158;2023-05-13T16:02:57;96722.50;;;14.46;88.09
13434;BME280;6789;47.678;9.158;2023-05-13T16:07:49;96725.56;;;14.38;87.96
13434;BME280;6789;47.678;9.158;2023-05-13T16:12:41;96728.78;;;14.40;87.72
13434;BME280;6789;47.678;9.158;2023-05-13T16:17:33;96726.22;;;14.50;87.38
13434;BME280;6789;47.678;9.158;2023-05-13T16:22:32;96726.56;;;14.32;88.92
13434;BME280;6789;47.678;9.158;2023-05-13T16:27:25;96722.88;;;14.33;88.33
13434;BME280;6789;47.678;9.158;2023-05-13T16:32:17;96730.06;;;14.38;88.04
13434;BME280;6789;47.678;9.158;2023-05-13T16:37:09;96725.88;;;14.42;87.70
13434;BME280;6789;47.678;9.158;2023-05-13T16:42:00;96715.66;;;14.24;87.76
13434;BME280;6789;47.678;9.158;2023-05-13T16:46:52;96719.22;;;14.13;86.39
13434;BME280;6789;47.678;9.158;2023-05-13T16:51:44;96721.88;;;14.13;86.82
13434;BME280;6789;47.678;9.158;2023-05-13T16:56:35;96717.28;;;14.09;86.03
13434;BME280;6789;47.678;9.158;2023-05-13T17:01:27;96717.38;;;14.14;86.76
13434;BME280;6789;47.678;9.158;2023-05-13T17:06:19;96706.25;;;14.33;85.96
13434;BME280;6789;47.678;9.158;2023-05-13T17:11:11;96722.03;;;14.54;84.66
13434;BME280;6789;47.678;9.158;2023-05-13T17:16:07;96716.53;;;14.56;84.99
13434;BME280;6789;47.678;9.158;2023-05-13T17:21:00;96720.91;;;14.45;86.25
13434;BME280;6789;47.678;9.158;2023-05-13T17:25:54;96726.13;;;14.40;86.90
13434;BME280;6789;47.678;9.158;2023-05-13T17:30:46;96724.66;;;14.28;87.70
13434;BME280;6789;47.678;9.158;2023-05-13T17:35:38;96725.75;;;14.11;88.16
13434;BME280;6789;47.678;9.158;2023-05-13T17:40:30;96728.78;;;13.98;89.14
13434;BME280;6789;47.678;9.158;2023-05-13T17:45:22;96732.44;;;13.97;88.37
13434;BME280;6789;47.678;9.158;2023-05-13T17:50:14;96733.16;;;13.92;88.46
13434;BME280;6789;47.678;9.158;2023-05-13T17:55:07;96731.81;;;13.90;88.65
13434;BME280;6789;47.678;9.158;2023-05-13T17:59:59;96721.69;;;13.82;88.98
13434;BME280;6789;47.678;9.158;2023-05-13T18:04:50;96725.94;;;13.83;89.82
13434;BME280;6789;47.678;9.158;2023-05-13T18:09:43;96718.44;;;13.75;89.73
13434;BME280;6789;47.678;9.158;2023-05-13T18:14:34;96731.88;;;13.57;91.30
13434;BME280;6789;47.678;9.158;2023-05-13T18:19:26;96734.06;;;13.60;91.53
13434;BME280;6789;47.678;9.158;2023-05-13T18:24:18;96732.59;;;13.69;91.39
13434;BME280;6789;47.678;9.158;2023-05-13T18:29:09;96730.59;;;13.59;91.71
13434;BME280;6789;47.678;9.158;2023-05-13T18:34:02;96728.69;;;13.55;92.24
13434;BME280;6789;47.678;9.158;2023-05-13T18:38:54;96722.47;;;13.61;91.36
13434;BME280;6789;47.678;9.158;2023-05-13T18:43:45;96728.53;;;13.61;91.86
13434;BME280;6789;47.678;9.158;2023-05-13T18:48:37;96729.00;;;13.58;92.59
13434;BME280;6789;47.678;9.158;2023-05-13T18:53:29;96729.34;;;13.46;92.26
13434;BME280;6789;47.678;9.158;2023-05-13T18:58:21;96742.13;;;13.37;93.02
13434;BME280;6789;47.678;9.158;2023-05-13T19:03:12;96743.59;;;13.45;92.91
13434;BME280;6789;47.678;9.158;2023-05-13T19:08:04;96751.56;;;13.33;93.03
13434;BME280;6789;47.678;9.158;2023-05-13T19:12:58;96745.34;;;13.39;92.96
13434;BME280;6789;47.678;9.158;2023-05-13T19:17:51;96749.00;;;13.38;92.80
13434;BME280;6789;47.678;9.158;2023-05-13T19:22:43;96751.63;;;13.38;92.50
13434;BME280;6789;47.678;9.158;2023-05-13T19:27:36;96752.84;;;13.31;92.54
13434;BME280;6789;47.678;9.158;2023-05-13T19:32:28;96764.00;;;13.21;92.83
13434;BME280;6789;47.678;9.158;2023-05-13T19:37:20;96781.88;;;13.19;93.27
13434;BME280;6789;47.678;9.158;2023-05-13T19:42:14;96771.59;;;13.18;92.75
13434;BME280;6789;47.678;9.158;2023-05-13T19:47:05;96772.50;;;13.23;92.49
13434;BME280;6789;47.678;9.158;2023-05-13T19:51:57;96763.06;;;13.27;93.12
13434;BME280;6789;47.678;9.158;2023-05-13T19:56:49;96774.81;;;13.20;92.85
13434;BME280;6789;47.678;9.158;2023-05-13T20:01:41;96769.28;;;13.21;93.41
13434;BME280;6789;47.678;9.158;2023-05-13T20:06:33;96772.00;;;13.43;92.07
13434;BME280;6789;47.678;9.158;2023-05-13T20:11:24;96768.00;;;13.24;92.14
13434;BME280;6789;47.678;9.158;2023-05-13T20:16:16;96767.22;;;13.23;92.36
13434;BME280;6789;47.678;9.158;2023-05-13T20:21:12;96778.22;;;13.20;93.37
13434;BME280;6789;47.678;9.158;2023-05-13T20:26:04;96787.00;;;13.26;93.42
13434;BME280;6789;47.678;9.158;2023-05-13T20:30:56;96780.94;;;13.25;93.94
13434;BME280;6789;47.678;9.158;2023-05-13T20:35:47;96777.81;;;13.28;94.28
13434;BME280;6789;47.678;9.158;2023-05-13T20:40:39;96771.53;;;13.29;93.90
13434;BME280;6789;47.678;9.158;2023-05-13T20:45:31;96777.19;;;13.38;94.36
13434;BME280;6789;47.678;9.158;2023-05-13T20:50:27;96768.72;;;13.19;94.90
13434;BME280;6789;47.678;9.158;2023-05-13T20:55:20;96773.91;;;13.14;94.84
13434;BME280;6789;47.678;9.158;2023-05-13T21:00:12;96770.69;;;13.12;95.98
13434;BME280;6789;47.678;9.158;2023-05-13T21:05:05;96766.72;;;13.10;95.64
13434;BME280;6789;47.678;9.158;2023-05-13T21:09:57;96776.22;;;13.11;96.07
13434;BME280;6789;47.678;9.158;2023-05-13T21:14:49;96776.91;;;13.06;97.42
13434;BME280;6789;47.678;9.158;2023-05-13T21:19:41;96771.53;;;13.13;94.30
13434;BME280;6789;47.678;9.158;2023-05-13T21:24:32;96767.84;;;12.97;95.21
13434;BME280;6789;47.678;9.158;2023-05-13T21:29:24;96763.38;;;13.14;94.02
13434;BME280;6789;47.678;9.158;2023-05-13T21:34:16;96770.88;;;13.06;94.88
13434;BME280;6789;47.678;9.158;2023-05-13T21:39:09;96763.03;;;12.94;95.70
13434;BME280;6789;47.678;9.158;2023-05-13T21:44:01;96752.25;;;12.96;95.52
13434;BME280;6789;47.678;9.158;2023-05-13T21:48:53;96760.31;;;12.89;96.35
13434;BME280;6789;47.678;9.158;2023-05-13T21:53:45;96761.44;;;12.93;96.30
13434;BME280;6789;47.678;9.158;2023-05-13T21:58:36;96755.06;;;13.06;95.70
13434;BME280;6789;47.678;9.158;2023-05-13T22:03:28;96753.00;;;12.91;97.43
13434;BME280;6789;47.678;9.158;2023-05-13T22:08:20;96744.84;;;12.93;96.82
13434;BME280;6789;47.678;9.158;2023-05-13T22:13:12;96740.19;;;12.83;97.39
13434;BME280;6789;47.678;9.158;2023-05-13T22:18:04;96740.72;;;12.69;98.23
13434;BME280;6789;47.678;9.158;2023-05-13T22:22:56;96749.47;;;12.58;98.82
13434;BME280;6789;47.678;9.158;2023-05-13T22:27:49;96744.09;;;12.53;99.82
13434;BME280;6789;47.678;9.158;2023-05-13T22:32:41;96736.81;;;12.44;100.00
13434;BME280;6789;47.678;9.158;2023-05-13T22:37:33;96730.69;;;12.38;100.00
13434;BME280;6789;47.678;9.158;2023-05-13T22:42:24;96727.47;;;12.36;100.00
13434;BME280;6789;47.678;9.158;2023-05-13T22:47:16;96719.03;;;12.34;100.00
13434;BME280;6789;47.678;9.158;2023-05-13T22:52:08;96716.88;;;12.31;100.00
13434;BME280;6789;47.678;9.158;2023-05-13T22:56:59;96718.09;;;12.12;100.00
13434;BME280;6789;47.678;9.158;2023-05-13T23:01:51;96715.47;;;12.12;100.00
13434;BME280;6789;47.678;9.158;2023-05-13T23:06:43;96708.19;;;11.92;100.00
13434;BME280;6789;47.678;9.158;2023-05-13T23:11:35;96702.50;;;11.83;100.00
13434;BME280;6789;47.678;9.158;2023-05-13T23:16:27;96703.78;;;11.69;100.00
13434;BME280;6789;47.678;9.158;2023-05-13T23:21:19;96694.22;;;11.63;100.00
13434;BME280;6789;47.678;9.158;2023-05-13T23:26:11;96690.38;;;11.54;100.00
13434;BME280;6789;47.678;9.158;2023-05-13T23:31:03;96680.66;;;11.43;100.00
13434;BME280;6789;47.678;9.158;2023-05-13T23:35:55;96675.16;;;11.34;100.00
13434;BME280;6789;47.678;9.158;2023-05-13T23:40:47;96670.72;;;11.23;100.00
13434;BME280;6789;47.678;9.158;2023-05-13T23:45:39;96664.91;;;11.09;100.00
13434;BME280;6789;47.678;9.158;2023-05-13T23:50:31;96661.81;;;11.01;100.00
13434;BME280;6789;47.678;9.158;2023-05-13T23:55:23;96665.16;;;10.96;100.00
